sensor_id;sensor_type;location;lat;lon;timestamp;temperature;humidity
44223;DHT22;29895;48.804;9.386;2024-02-23T00:00:35;7.00;99.90
44223;DHT22;29895;48.804;9.386;2024-02-23T00:03:00;6.90;99.90
44223;DHT22;29895;48.804;9.386;2024-02-23T00:05:26;7.00;99.90
44223;DHT22;29895;48.804;9.386;2024-02-23T00:07:51;7.00;99.90
44223;DHT22;29895;48.804;9.386;2024-02-23T00:10:17;7.00;99.90
44223;DHT22;29895;48.804;9.386;2024-02-23T00:12:43;7.00;99.90
44223;DHT22;29895;48.804;9.386;2024-02-23T00:15:12;6.90;99.90
44223;DHT22;29895;48.804;9.386;2024-02-23T00:17:38;6.90;99.90
44223;DHT22;29895;48.804;9.386;2024-02-23T00:20:08;6.90;99.90
44223;DHT22;29895;48.804;9.386;2024-02-23T00:22:34;6.90;99.90
44223;DHT22;29895;48.804;9.386;2024-02-23T00:25:00;6.90;99.90
44223;DHT22;29895;48.804;9.386;2024-02-23T00:27:26;6.90;99.90
44223;DHT22;29895;48.804;9.386;2024-02-23T00:29:51;6.90;99.90
44223;DHT22;29895;48.804;9.386;2024-02-23T00:32:17;6.90;99.90
44223;DHT22;29895;48.804;9.386;2024-02-23T00:34:43;6.80;99.90
44223;DHT22;29895;48.804;9.386;2024-02-23T00:37:08;6.80;99.90
44223;DHT22;29895;48.804;9.386;2024-02-23T00:39:34;6.80;99.90
44223;DHT22;29895;48.804;9.386;2024-02-23T00:41:59;6.70;99.90
44223;DHT22;29895;48.804;9.386;2024-02-23T00:44:25;6.80;99.90
44223;DHT22;29895;48.804;9.386;2024-02-23T00:46:51;6.80;99.90
44223;DHT22;29895;48.804;9.386;2024-02-23T00:49:16;6.80;99.90
44223;DHT22;29895;48.804;9.386;2024-02-23T00:51:43;6.80;99.90
44223;DHT22;29895;48.804;9.386;2024-02-23T00:54:08;6.80;99.90
44223;DHT22;29895;48.804;9.386;2024-02-23T00:56:35;6.80;99.90
44223;DHT22;29895;48.804;9.386;2024-02-23T00:59:01;6.80;99.90
44223;DHT22;29895;48.804;9.386;2024-02-23T01:01:26;6.80;99.90
44223;DHT22;29895;48.804;9.386;2024-02-23T01:03:53;6.80;99.90
44223;DHT22;29895;48.804;9.386;2024-02-23T01:06:19;6.70;99.90
44223;DHT22;29895;48.804;9.386;2024-02-23T01:08:45;6.70;99.90
44223;DHT22;29895;48.804;9.386;2024-02-23T01:11:10;6.70;99.90
44223;DHT22;29895;48.804;9.386;2024-02-23T01:13:36;6.60;99.90
44223;DHT22;29895;48.804;9.386;2024-02-23T01:16:02;6.60;99.90
44223;DHT22;29895;48.804;9.386;2024-02-23T01:18:27;6.60;99.90
44223;DHT22;29895;48.804;9.386;2024-02-23T01:20:53;6.50;99.90
44223;DHT22;29895;48.804;9.386;2024-02-23T01:23:19;6.50;99.90
44223;DHT22;29895;48.804;9.386;2024-02-23T01:25:44;6.60;99.90
44223;DHT22;29895;48.804;9.386;2024-02-23T01:28:10;6.50;99.90
44223;DHT22;29895;48.804;9.386;2024-02-23T01:30:35;6.60;99.90
44223;DHT22;29895;48.804;9.386;2024-02-23T01:33:02;6.60;99.90
44223;DHT22;29895;48.804;9.386;2024-02-23T01:35:28;6.60;99.90
44223;DHT22;29895;48.804;9.386;2024-02-23T01:37:54;6.60;99.90
44223;DHT22;29895;48.804;9.386;2024-02-23T01:40:20;6.70;99.90
44223;DHT22;29895;48.804;9.386;2024-02-23T01:42:45;6.60;99.90
44223;DHT22;29895;48.804;9.386;2024-02-23T01:45:11;6.50;99.90
44223;DHT22;29895;48.804;9.386;2024-02-23T01:47:36;6.50;99.90
44223;DHT22;29895;48.804;9.386;2024-02-23T01:50:03;6.50;99.90
44223;DHT22;29895;48.804;9.386;2024-02-23T01:52:29;6.40;99.90
44223;DHT22;29895;48.804;9.386;2024-02-23T01:54:56;6.40;99.90
44223;DHT22;29895;48.804;9.386;2024-02-23T01:57:22;6.50;99.90
44223;DHT22;29895;48.804;9.386;2024-02-23T01:59:48;6.60;99.90
44223;DHT22;29895;48.804;9.386;2024-02-23T02:02:15;6.70;99.90
44223;DHT22;29895;48.804;9.386;2024-02-23T02:04:41;6.60;99.90
44223;DHT22;29895;48.804;9.386;2024-02-23T02:07:06;6.70;99.90
44223;DHT22;29895;48.804;9.386;2024-02-23T02:09:32;6.70;99.90
44223;DHT22;29895;48.804;9.386;2024-02-23T02:11:58;6.70;99.90
44223;DHT22;29895;48.804;9.386;2024-02-23T02:14:24;6.60;99.90
44223;DHT22;29895;48.804;9.386;2024-02-23T02:16:49;6.60;99.90
44223;DHT22;29895;48.804;9.386;2024-02-23T02:19:15;6.60;99.90
44223;DHT22;29895;48.804;9.386;2024-02-23T02:21:41;6.60;99.90
44223;DHT22;29895;48.804;9.386;2024-02-23T02:24:07;6.60;99.90
44223;DHT22;29895;48.804;9.386;2024-02-23T02:26:34;6.70;99.90
44223;DHT22;29895;48.804;9.386;2024-02-23T02:29:01;6.60;99.90
44223;DHT22;29895;48.804;9.386;2024-02-23T02:31:26;6.40;99.90
44223;DHT22;29895;48.804;9.386;2024-02-23T02:33:52;6.30;99.90
44223;DHT22;29895;48.804;9.386;2024-02-23T02:36:17;6.30;99.90
44223;DHT22;29895;48.804;9.386;2024-02-23T02:38:43;6.20;99.90
44223;DHT22;29895;48.804;9.386;2024-02-23T02:41:09;6.20;99.90
44223;DHT22;29895;48.804;9.386;2024-02-23T02:43:35;6.10;99.90
44223;DHT22;29895;48.804;9.386;2024-02-23T02:46:00;6.10;99.90
44223;DHT22;29895;48.804;9.386;2024-02-23T02:48:26;6.10;99.90
44223;DHT22;29895;48.804;9.386;2024-02-23T02:50:51;6.10;99.90
44223;DHT22;29895;48.804;9.386;2024-02-23T02:53:17;6.10;99.90
44223;DHT22;29895;48.804;9.386;2024-02-23T02:55:44;6.10;99.90
44223;DHT22;29895;48.804;9.386;2024-02-23T02:58:11;6.10;99.90
44223;DHT22;29895;48.804;9.386;2024-02-23T03:00:38;6.10;99.90
44223;DHT22;29895;48.804;9.386;2024-02-23T03:03:04;6.00;99.90
44223;DHT22;29895;48.804;9.386;2024-02-23T03:05:29;6.00;99.90
44223;DHT22;29895;48.804;9.386;2024-02-23T03:07:55;6.00;99.90
44223;DHT22;29895;48.804;9.386;2024-02-23T03:10:21;6.00;99.90
44223;DHT22;29895;48.804;9.386;2024-02-23T03:12:46;5.90;99.90
44223;DHT22;29895;48.804;9.386;2024-02-23T03:15:12;5.90;99.90
44223;DHT22;29895;48.804;9.386;2024-02-23T03:17:38;5.80;99.90
44223;DHT22;29895;48.804;9.386;2024-02-23T03:20:04;5.80;99.90
44223;DHT22;29895;48.804;9.386;2024-02-23T03:22:37;5.80;99.90
44223;DHT22;29895;48.804;9.386;2024-02-23T03:25:03;5.90;99.90
44223;DHT22;29895;48.804;9.386;2024-02-23T03:27:34;5.90;99.90
44223;DHT22;29895;48.804;9.386;2024-02-23T03:30:00;6.00;99.90
44223;DHT22;29895;48.804;9.386;2024-02-23T03:32:26;6.00;99.90
44223;DHT22;29895;48.804;9.386;2024-02-23T03:34:51;6.10;99.90
44223;DHT22;29895;48.804;9.386;2024-02-23T03:37:17;6.10;99.90
44223;DHT22;29895;48.804;9.386;2024-02-23T03:39:43;6.10;99.90
44223;DHT22;29895;48.804;9.386;2024-02-23T03:42:08;6.10;99.90
44223;DHT22;29895;48.804;9.386;2024-02-23T03:44:34;6.10;99.90
44223;DHT22;29895;48.804;9.386;2024-02-23T03:46:59;6.10;99.90
44223;DHT22;29895;48.804;9.386;2024-02-23T03:49:25;6.10;99.90
44223;DHT22;29895;48.804;9.386;2024-02-23T03:51:51;6.00;99.90
44223;DHT22;29895;48.804;9.386;2024-02-23T03:54:16;5.90;99.90
44223;DHT22;29895;48.804;9.386;2024-02-23T03:56:42;5.90;99.90
44223;DHT22;29895;48.804;9.386;2024-02-23T03:59:08;5.90;99.90
44223;DHT22;29895;48.804;9.386;2024-02-23T04:01:36;5.90;99.90
44223;DHT22;29895;48.804;9.386;2024-02-23T04:04:02;6.00;99.90
44223;DHT22;29895;48.804;9.386;2024-02-23T04:06:28;5.90;99.90
44223;DHT22;29895;48.804;9.386;2024-02-23T04:08:54;5.90;99.90
44223;DHT22;29895;48.804;9.386;2024-02-23T04:11:19;5.90;99.90
44223;DHT22;29895;48.804;9.386;2024-02-23T04:13:45;5.90;99.90
44223;DHT22;29895;48.804;9.386;2024-02-23T04:16:10;5.90;99.90
44223;DHT22;29895;48.804;9.386;2024-02-23T04:18:36;5.80;99.90
44223;DHT22;29895;48.804;9.386;2024-02-23T04:21:02;5.90;99.90
44223;DHT22;29895;48.804;9.386;2024-02-23T04:23:27;5.80;99.90
44223;DHT22;29895;48.804;9.386;2024-02-23T04:25:53;5.80;99.90
44223;DHT22;29895;48.804;9.386;2024-02-23T04:28:19;5.90;99.90
44223;DHT22;29895;48.804;9.386;2024-02-23T04:30:45;5.80;99.90
44223;DHT22;29895;48.804;9.386;2024-02-23T04:33:10;5.70;99.90
44223;DHT22;29895;48.804;9.386;2024-02-23T04:35:36;5.70;99.90
44223;DHT22;29895;48.804;9.386;2024-02-23T04:38:02;5.70;99.90
44223;DHT22;29895;48.804;9.386;2024-02-23T04:40:28;5.70;99.90
44223;DHT22;29895;48.804;9.386;2024-02-23T04:42:53;5.70;99.90
44223;DHT22;29895;48.804;9.386;2024-02-23T04:45:19;5.70;99.90
44223;DHT22;29895;48.804;9.386;2024-02-23T04:47:44;5.70;99.90
44223;DHT22;29895;48.804;9.386;2024-02-23T04:50:12;5.60;99.90
44223;DHT22;29895;48.804;9.386;2024-02-23T04:52:37;5.60;99.90
44223;DHT22;29895;48.804;9.386;2024-02-23T04:55:03;5.60;99.90
44223;DHT22;29895;48.804;9.386;2024-02-23T04:57:29;5.60;99.90
44223;DHT22;29895;48.804;9.386;2024-02-23T04:59:54;5.50;99.90
44223;DHT22;29895;48.804;9.386;2024-02-23T05:02:20;5.50;99.90
44223;DHT22;29895;48.804;9.386;2024-02-23T05:04:46;5.40;99.90
44223;DHT22;29895;48.804;9.386;2024-02-23T05:07:11;5.40;99.90
44223;DHT22;29895;48.804;9.386;2024-02-23T05:09:37;5.40;99.90
44223;DHT22;29895;48.804;9.386;2024-02-23T05:12:03;5.40;99.90
44223;DHT22;29895;48.804;9.386;2024-02-23T05:14:29;5.30;99.90
44223;DHT22;29895;48.804;9.386;2024-02-23T05:16:54;5.30;99.90
44223;DHT22;29895;48.804;9.386;2024-02-23T05:19:20;5.30;99.90
44223;DHT22;29895;48.804;9.386;2024-02-23T05:21:46;5.30;99.90
44223;DHT22;29895;48.804;9.386;2024-02-23T05:24:11;5.20;99.90
44223;DHT22;29895;48.804;9.386;2024-02-23T05:26:37;5.10;99.90
44223;DHT22;29895;48.804;9.386;2024-02-23T05:29:03;5.00;99.90
44223;DHT22;29895;48.804;9.386;2024-02-23T05:31:45;5.00;99.90
44223;DHT22;29895;48.804;9.386;2024-02-23T05:34:11;5.00;99.90
44223;DHT22;29895;48.804;9.386;2024-02-23T05:36:37;5.10;99.90
44223;DHT22;29895;48.804;9.386;2024-02-23T05:39:03;5.10;99.90
44223;DHT22;29895;48.804;9.386;2024-02-23T05:41:28;5.00;99.90
44223;DHT22;29895;48.804;9.386;2024-02-23T05:43:54;5.00;99.90
44223;DHT22;29895;48.804;9.386;2024-02-23T05:46:19;5.10;99.90
44223;DHT22;29895;48.804;9.386;2024-02-23T05:48:46;5.00;99.90
44223;DHT22;29895;48.804;9.386;2024-02-23T05:51:12;4.90;99.90
44223;DHT22;29895;48.804;9.386;2024-02-23T05:53:37;4.90;99.90
44223;DHT22;29895;48.804;9.386;2024-02-23T05:56:03;4.90;99.90
44223;DHT22;29895;48.804;9.386;2024-02-23T05:58:29;4.90;99.90
44223;DHT22;29895;48.804;9.386;2024-02-23T06:00:55;4.80;99.90
44223;DHT22;29895;48.804;9.386;2024-02-23T06:03:20;4.70;99.90
44223;DHT22;29895;48.804;9.386;2024-02-23T06:05:46;4.60;99.90
44223;DHT22;29895;48.804;9.386;2024-02-23T06:08:12;4.60;99.90
44223;DHT22;29895;48.804;9.386;2024-02-23T06:10:37;4.50;99.90
44223;DHT22;29895;48.804;9.386;2024-02-23T06:13:03;4.50;99.90
44223;DHT22;29895;48.804;9.386;2024-02-23T06:15:29;4.50;99.90
44223;DHT22;29895;48.804;9.386;2024-02-23T06:17:55;4.40;99.90
44223;DHT22;29895;48.804;9.386;2024-02-23T06:20:20;4.30;99.90
44223;DHT22;29895;48.804;9.386;2024-02-23T06:22:46;4.20;99.90
44223;DHT22;29895;48.804;9.386;2024-02-23T06:25:11;4.20;99.90
44223;DHT22;29895;48.804;9.386;2024-02-23T06:27:37;4.20;99.90
44223;DHT22;29895;48.804;9.386;2024-02-23T06:30:04;4.20;99.90
44223;DHT22;29895;48.804;9.386;2024-02-23T06:32:30;4.20;99.90
44223;DHT22;29895;48.804;9.386;2024-02-23T06:34:55;4.20;99.90
44223;DHT22;29895;48.804;9.386;2024-02-23T06:37:21;4.10;99.90
44223;DHT22;29895;48.804;9.386;2024-02-23T06:39:47;4.10;99.90
44223;DHT22;29895;48.804;9.386;2024-02-23T06:42:22;4.10;99.90
44223;DHT22;29895;48.804;9.386;2024-02-23T06:44:48;4.10;99.90
44223;DHT22;29895;48.804;9.386;2024-02-23T06:47:14;4.20;99.90
44223;DHT22;29895;48.804;9.386;2024-02-23T06:49:43;4.10;99.90
44223;DHT22;29895;48.804;9.386;2024-02-23T06:52:09;4.10;99.90
44223;DHT22;29895;48.804;9.386;2024-02-23T06:54:35;4.10;99.90
44223;DHT22;29895;48.804;9.386;2024-02-23T06:57:01;4.10;99.90
44223;DHT22;29895;48.804;9.386;2024-02-23T06:59:26;4.20;99.90
44223;DHT22;29895;48.804;9.386;2024-02-23T07:01:52;4.20;99.90
44223;DHT22;29895;48.804;9.386;2024-02-23T07:04:18;4.30;99.90
44223;DHT22;29895;48.804;9.386;2024-02-23T07:06:44;4.30;99.90
44223;DHT22;29895;48.804;9.386;2024-02-23T07:09:10;4.30;99.90
44223;DHT22;29895;48.804;9.386;2024-02-23T07:11:37;4.30;99.90
44223;DHT22;29895;48.804;9.386;2024-02-23T07:14:03;4.30;99.90
44223;DHT22;29895;48.804;9.386;2024-02-23T07:16:29;4.40;99.90
44223;DHT22;29895;48.804;9.386;2024-02-23T07:18:55;4.30;99.90
44223;DHT22;29895;48.804;9.386;2024-02-23T07:21:22;4.30;99.90
44223;DHT22;29895;48.804;9.386;2024-02-23T07:23:48;4.40;99.90
44223;DHT22;29895;48.804;9.386;2024-02-23T07:26:13;4.40;99.90
44223;DHT22;29895;48.804;9.386;2024-02-23T07:28:39;4.40;99.90
44223;DHT22;29895;48.804;9.386;2024-02-23T07:31:04;4.50;99.90
44223;DHT22;29895;48.804;9.386;2024-02-23T07:33:32;4.40;99.90
44223;DHT22;29895;48.804;9.386;2024-02-23T07:35:58;4.40;99.90
44223;DHT22;29895;48.804;9.386;2024-02-23T07:38:24;4.40;99.90
44223;DHT22;29895;48.804;9.386;2024-02-23T07:40:49;4.40;99.90
44223;DHT22;29895;48.804;9.386;2024-02-23T07:43:15;4.50;99.90
44223;DHT22;29895;48.804;9.386;2024-02-23T07:45:41;4.60;99.90
44223;DHT22;29895;48.804;9.386;2024-02-23T07:48:07;4.80;99.90
44223;DHT22;29895;48.804;9.386;2024-02-23T07:50:34;5.00;99.90
44223;DHT22;29895;48.804;9.386;2024-02-23T07:52:59;5.10;99.90
44223;DHT22;29895;48.804;9.386;2024-02-23T07:55:25;5.20;99.90
44223;DHT22;29895;48.804;9.386;2024-02-23T07:57:51;5.20;99.90
44223;DHT22;29895;48.804;9.386;2024-02-23T08:00:17;5.30;99.90
44223;DHT22;29895;48.804;9.386;2024-02-23T08:02:43;5.20;99.90
44223;DHT22;29895;48.804;9.386;2024-02-23T08:05:09;5.30;99.90
44223;DHT22;29895;48.804;9.386;2024-02-23T08:07:35;5.30;99.90
44223;DHT22;29895;48.804;9.386;2024-02-23T08:10:01;5.30;99.90
44223;DHT22;29895;48.804;9.386;2024-02-23T08:12:28;5.30;99.90
44223;DHT22;29895;48.804;9.386;2024-02-23T08:14:54;5.50;99.90
44223;DHT22;29895;48.804;9.386;2024-02-23T08:17:21;5.60;99.90
44223;DHT22;29895;48.804;9.386;2024-02-23T08:19:47;5.70;99.90
44223;DHT22;29895;48.804;9.386;2024-02-23T08:22:12;5.90;99.90
44223;DHT22;29895;48.804;9.386;2024-02-23T08:24:38;5.90;99.90
44223;DHT22;29895;48.804;9.386;2024-02-23T08:27:04;6.00;99.90
44223;DHT22;29895;48.804;9.386;2024-02-23T08:29:30;6.00;99.90
44223;DHT22;29895;48.804;9.386;2024-02-23T08:31:55;6.10;99.90
44223;DHT22;29895;48.804;9.386;2024-02-23T08:34:21;6.20;99.90
44223;DHT22;29895;48.804;9.386;2024-02-23T08:36:46;6.30;99.90
44223;DHT22;29895;48.804;9.386;2024-02-23T08:39:12;6.40;99.90
44223;DHT22;29895;48.804;9.386;2024-02-23T08:41:38;6.40;99.90
44223;DHT22;29895;48.804;9.386;2024-02-23T08:44:04;6.60;99.90
44223;DHT22;29895;48.804;9.386;2024-02-23T08:46:30;6.70;99.90
44223;DHT22;29895;48.804;9.386;2024-02-23T08:48:55;6.80;99.90
44223;DHT22;29895;48.804;9.386;2024-02-23T08:51:21;6.90;99.90
44223;DHT22;29895;48.804;9.386;2024-02-23T08:53:47;6.90;99.90
44223;DHT22;29895;48.804;9.386;2024-02-23T08:56:12;7.00;99.90
44223;DHT22;29895;48.804;9.386;2024-02-23T08:58:38;6.90;99.90
44223;DHT22;29895;48.804;9.386;2024-02-23T09:01:04;7.00;99.90
44223;DHT22;29895;48.804;9.386;2024-02-23T09:03:30;7.00;99.90
44223;DHT22;29895;48.804;9.386;2024-02-23T09:05:57;7.10;99.90
44223;DHT22;29895;48.804;9.386;2024-02-23T09:08:23;7.30;99.90
44223;DHT22;29895;48.804;9.386;2024-02-23T09:10:48;7.30;99.90
44223;DHT22;29895;48.804;9.386;2024-02-23T09:13:14;7.40;99.90
44223;DHT22;29895;48.804;9.386;2024-02-23T09:15:40;7.40;99.90
44223;DHT22;29895;48.804;9.386;2024-02-23T09:18:07;7.50;99.90
44223;DHT22;29895;48.804;9.386;2024-02-23T09:20:33;7.40;99.90
44223;DHT22;29895;48.804;9.386;2024-02-23T09:22:59;7.60;99.90
44223;DHT22;29895;48.804;9.386;2024-02-23T09:25:24;7.50;99.90
44223;DHT22;29895;48.804;9.386;2024-02-23T09:27:50;7.40;99.90
44223;DHT22;29895;48.804;9.386;2024-02-23T09:30:16;7.40;99.90
44223;DHT22;29895;48.804;9.386;2024-02-23T09:32:41;7.50;99.90
44223;DHT22;29895;48.804;9.386;2024-02-23T09:35:07;7.70;99.90
44223;DHT22;29895;48.804;9.386;2024-02-23T09:37:33;7.80;99.90
44223;DHT22;29895;48.804;9.386;2024-02-23T09:39:59;7.80;99.90
44223;DHT22;29895;48.804;9.386;2024-02-23T09:42:25;8.00;99.90
44223;DHT22;29895;48.804;9.386;2024-02-23T09:44:58;8.10;99.90
44223;DHT22;29895;48.804;9.386;2024-02-23T09:47:26;8.10;99.90
44223;DHT22;29895;48.804;9.386;2024-02-23T09:49:53;8.30;99.90
44223;DHT22;29895;48.804;9.386;2024-02-23T09:52:20;8.30;99.90
44223;DHT22;29895;48.804;9.386;2024-02-23T09:54:46;8.40;99.90
44223;DHT22;29895;48.804;9.386;2024-02-23T09:57:14;8.40;99.90
44223;DHT22;29895;48.804;9.386;2024-02-23T09:59:41;8.40;99.90
44223;DHT22;29895;48.804;9.386;2024-02-23T10:02:14;8.40;99.90
44223;DHT22;29895;48.804;9.386;2024-02-23T10:04:42;8.30;99.90
44223;DHT22;29895;48.804;9.386;2024-02-23T10:07:09;8.40;99.90
44223;DHT22;29895;48.804;9.386;2024-02-23T10:09:35;8.50;99.90
44223;DHT22;29895;48.804;9.386;2024-02-23T10:12:02;8.40;99.90
44223;DHT22;29895;48.804;9.386;2024-02-23T10:14:28;8.40;99.90
44223;DHT22;29895;48.804;9.386;2024-02-23T10:16:54;8.40;99.90
44223;DHT22;29895;48.804;9.386;2024-02-23T10:19:20;8.40;99.90
44223;DHT22;29895;48.804;9.386;2024-02-23T10:21:46;8.40;99.90
44223;DHT22;29895;48.804;9.386;2024-02-23T10:24:15;8.30;99.90
44223;DHT22;29895;48.804;9.386;2024-02-23T10:26:41;8.30;99.90
44223;DHT22;29895;48.804;9.386;2024-02-23T10:29:07;8.30;99.90
44223;DHT22;29895;48.804;9.386;2024-02-23T10:31:35;8.30;99.90
44223;DHT22;29895;48.804;9.386;2024-02-23T10:34:09;8.30;99.90
44223;DHT22;29895;48.804;9.386;2024-02-23T10:36:41;8.30;99.90
44223;DHT22;29895;48.804;9.386;2024-02-23T10:39:17;8.40;99.90
44223;DHT22;29895;48.804;9.386;2024-02-23T10:41:56;8.50;99.90
44223;DHT22;29895;48.804;9.386;2024-02-23T10:44:24;8.40;99.90
44223;DHT22;29895;48.804;9.386;2024-02-23T10:46:52;8.50;99.90
44223;DHT22;29895;48.804;9.386;2024-02-23T10:49:19;8.50;99.90
44223;DHT22;29895;48.804;9.386;2024-02-23T10:51:46;8.50;99.90
44223;DHT22;29895;48.804;9.386;2024-02-23T10:54:14;8.40;99.90
44223;DHT22;29895;48.804;9.386;2024-02-23T10:56:41;8.60;99.90
44223;DHT22;29895;48.804;9.386;2024-02-23T10:59:08;8.70;99.90
44223;DHT22;29895;48.804;9.386;2024-02-23T11:01:35;8.70;99.90
44223;DHT22;29895;48.804;9.386;2024-02-23T11:04:02;8.90;99.90
44223;DHT22;29895;48.804;9.386;2024-02-23T11:06:28;9.00;99.90
44223;DHT22;29895;48.804;9.386;2024-02-23T11:09:04;9.00;99.90
44223;DHT22;29895;48.804;9.386;2024-02-23T11:11:32;9.00;99.90
44223;DHT22;29895;48.804;9.386;2024-02-23T11:13:57;9.00;99.90
44223;DHT22;29895;48.804;9.386;2024-02-23T11:16:25;9.00;99.90
44223;DHT22;29895;48.804;9.386;2024-02-23T11:19:05;9.00;99.90
44223;DHT22;29895;48.804;9.386;2024-02-23T11:21:37;9.00;99.90
44223;DHT22;29895;48.804;9.386;2024-02-23T11:24:04;9.10;99.90
44223;DHT22;29895;48.804;9.386;2024-02-23T11:26:30;9.30;99.90
44223;DHT22;29895;48.804;9.386;2024-02-23T11:28:57;9.30;99.90
44223;DHT22;29895;48.804;9.386;2024-02-23T11:31:25;9.20;99.90
44223;DHT22;29895;48.804;9.386;2024-02-23T11:33:54;9.10;99.90
44223;DHT22;29895;48.804;9.386;2024-02-23T11:36:32;9.20;99.90
44223;DHT22;29895;48.804;9.386;2024-02-23T11:38:59;9.30;99.90
44223;DHT22;29895;48.804;9.386;2024-02-23T11:41:26;9.40;99.90
44223;DHT22;29895;48.804;9.386;2024-02-23T11:43:54;9.40;99.90
44223;DHT22;29895;48.804;9.386;2024-02-23T11:46:26;9.50;99.90
44223;DHT22;29895;48.804;9.386;2024-02-23T11:48:52;9.60;99.90
44223;DHT22;29895;48.804;9.386;2024-02-23T11:51:24;9.70;99.90
44223;DHT22;29895;48.804;9.386;2024-02-23T11:53:52;9.50;99.90
44223;DHT22;29895;48.804;9.386;2024-02-23T11:56:18;9.50;99.90
44223;DHT22;29895;48.804;9.386;2024-02-23T11:58:46;9.70;99.90
44223;DHT22;29895;48.804;9.386;2024-02-23T12:01:11;9.60;99.90
44223;DHT22;29895;48.804;9.386;2024-02-23T12:03:37;9.60;99.90
44223;DHT22;29895;48.804;9.386;2024-02-23T12:06:05;9.60;99.90
44223;DHT22;29895;48.804;9.386;2024-02-23T12:08:31;9.60;99.90
44223;DHT22;29895;48.804;9.386;2024-02-23T12:11:03;9.60;99.90
44223;DHT22;29895;48.804;9.386;2024-02-23T12:13:29;9.60;99.90
44223;DHT22;29895;48.804;9.386;2024-02-23T12:15:55;9.60;99.90
44223;DHT22;29895;48.804;9.386;2024-02-23T12:18:22;9.80;99.90
44223;DHT22;29895;48.804;9.386;2024-02-23T12:21:01;9.80;99.90
44223;DHT22;29895;48.804;9.386;2024-02-23T12:23:39;9.80;99.90
44223;DHT22;29895;48.804;9.386;2024-02-23T12:26:04;9.70;99.90
44223;DHT22;29895;48.804;9.386;2024-02-23T12:28:30;9.70;99.90
44223;DHT22;29895;48.804;9.386;2024-02-23T12:31:00;9.80;99.90
44223;DHT22;29895;48.804;9.386;2024-02-23T12:33:36;9.90;99.90
44223;DHT22;29895;48.804;9.386;2024-02-23T12:36:06;10.00;99.90
44223;DHT22;29895;48.804;9.386;2024-02-23T12:38:32;10.10;99.90
44223;DHT22;29895;48.804;9.386;2024-02-23T12:40:59;10.10;99.90
44223;DHT22;29895;48.804;9.386;2024-02-23T12:43:24;10.10;99.90
44223;DHT22;29895;48.804;9.386;2024-02-23T12:45:51;10.10;99.90
44223;DHT22;29895;48.804;9.386;2024-02-23T12:48:18;10.00;99.90
44223;DHT22;29895;48.804;9.386;2024-02-23T12:50:44;10.10;99.90
44223;DHT22;29895;48.804;9.386;2024-02-23T12:55:57;10.10;99.90
44223;DHT22;29895;48.804;9.386;2024-02-23T12:58:23;10.00;99.90
44223;DHT22;29895;48.804;9.386;2024-02-23T13:00:48;10.10;99.90
44223;DHT22;29895;48.804;9.386;2024-02-23T13:03:14;10.30;99.90
44223;DHT22;29895;48.804;9.386;2024-02-23T13:05:39;10.30;99.90
44223;DHT22;29895;48.804;9.386;2024-02-23T13:08:05;10.40;99.90
44223;DHT22;29895;48.804;9.386;2024-02-23T13:10:31;10.40;99.90
44223;DHT22;29895;48.804;9.386;2024-02-23T13:12:57;10.40;99.90
44223;DHT22;29895;48.804;9.386;2024-02-23T13:15:23;10.30;99.90
44223;DHT22;29895;48.804;9.386;2024-02-23T13:17:48;10.40;99.90
44223;DHT22;29895;48.804;9.386;2024-02-23T13:20:14;10.30;99.90
44223;DHT22;29895;48.804;9.386;2024-02-23T13:22:40;10.20;99.90
44223;DHT22;29895;48.804;9.386;2024-02-23T13:25:06;10.20;99.90
44223;DHT22;29895;48.804;9.386;2024-02-23T13:27:31;10.10;99.90
44223;DHT22;29895;48.804;9.386;2024-02-23T13:29:57;10.10;99.90
44223;DHT22;29895;48.804;9.386;2024-02-23T13:32:23;10.10;99.90
44223;DHT22;29895;48.804;9.386;2024-02-23T13:34:49;10.10;99.90
44223;DHT22;29895;48.804;9.386;2024-02-23T13:37:18;10.00;99.90
44223;DHT22;29895;48.804;9.386;2024-02-23T13:39:43;9.90;99.90
44223;DHT22;29895;48.804;9.386;2024-02-23T13:42:09;9.90;99.90
44223;DHT22;29895;48.804;9.386;2024-02-23T13:44:36;10.00;99.90
44223;DHT22;29895;48.804;9.386;2024-02-23T13:47:01;10.10;99.90
44223;DHT22;29895;48.804;9.386;2024-02-23T13:49:28;10.20;99.90
44223;DHT22;29895;48.804;9.386;2024-02-23T13:51:54;10.30;99.90
44223;DHT22;29895;48.804;9.386;2024-02-23T13:54:20;10.20;99.90
44223;DHT22;29895;48.804;9.386;2024-02-23T13:56:46;10.10;99.90
44223;DHT22;29895;48.804;9.386;2024-02-23T13:59:12;10.10;99.90
44223;DHT22;29895;48.804;9.386;2024-02-23T14:01:38;10.20;99.90
44223;DHT22;29895;48.804;9.386;2024-02-23T14:04:07;10.20;99.90
44223;DHT22;29895;48.804;9.386;2024-02-23T14:06:36;10.10;99.90
44223;DHT22;29895;48.804;9.386;2024-02-23T14:09:01;10.10;99.90
44223;DHT22;29895;48.804;9.386;2024-02-23T14:11:29;9.90;99.90
44223;DHT22;29895;48.804;9.386;2024-02-23T14:13:55;9.90;99.90
44223;DHT22;29895;48.804;9.386;2024-02-23T14:16:21;9.80;99.90
44223;DHT22;29895;48.804;9.386;2024-02-23T14:18:49;10.00;99.90
44223;DHT22;29895;48.804;9.386;2024-02-23T14:21:15;10.00;99.90
44223;DHT22;29895;48.804;9.386;2024-02-23T14:23:41;10.00;99.90
44223;DHT22;29895;48.804;9.386;2024-02-23T14:26:06;10.10;99.90
44223;DHT22;29895;48.804;9.386;2024-02-23T14:28:32;10.10;99.90
44223;DHT22;29895;48.804;9.386;2024-02-23T14:30:58;10.20;99.90
44223;DHT22;29895;48.804;9.386;2024-02-23T14:33:24;10.30;99.90
44223;DHT22;29895;48.804;9.386;2024-02-23T14:35:50;10.40;99.90
44223;DHT22;29895;48.804;9.386;2024-02-23T14:38:16;10.30;99.90
44223;DHT22;29895;48.804;9.386;2024-02-23T14:40:42;10.30;99.90
44223;DHT22;29895;48.804;9.386;2024-02-23T14:43:08;10.20;99.90
44223;DHT22;29895;48.804;9.386;2024-02-23T14:45:35;10.20;99.90
44223;DHT22;29895;48.804;9.386;2024-02-23T14:48:01;10.10;99.90
44223;DHT22;29895;48.804;9.386;2024-02-23T14:50:27;10.00;99.90
44223;DHT22;29895;48.804;9.386;2024-02-23T14:52:52;9.80;99.90
44223;DHT22;29895;48.804;9.386;2024-02-23T14:55:19;9.90;99.90
44223;DHT22;29895;48.804;9.386;2024-02-23T14:57:45;9.90;99.90
44223;DHT22;29895;48.804;9.386;2024-02-23T15:00:11;10.00;99.90
44223;DHT22;29895;48.804;9.386;2024-02-23T15:02:37;10.10;99.90
44223;DHT22;29895;48.804;9.386;2024-02-23T15:05:05;10.10;99.90
44223;DHT22;29895;48.804;9.386;2024-02-23T15:07:32;10.10;99.90
44223;DHT22;29895;48.804;9.386;2024-02-23T15:09:58;10.10;99.90
44223;DHT22;29895;48.804;9.386;2024-02-23T15:12:24;10.10;99.90
44223;DHT22;29895;48.804;9.386;2024-02-23T15:14:53;10.10;99.90
44223;DHT22;29895;48.804;9.386;2024-02-23T15:17:19;10.00;99.90
44223;DHT22;29895;48.804;9.386;2024-02-23T15:19:45;9.90;99.90
44223;DHT22;29895;48.804;9.386;2024-02-23T15:22:10;9.70;99.90
44223;DHT22;29895;48.804;9.386;2024-02-23T15:24:40;9.60;99.90
44223;DHT22;29895;48.804;9.386;2024-02-23T15:27:08;9.60;99.90
44223;DHT22;29895;48.804;9.386;2024-02-23T15:29:34;9.50;99.90
44223;DHT22;29895;48.804;9.386;2024-02-23T15:32:00;9.40;99.90
44223;DHT22;29895;48.804;9.386;2024-02-23T15:34:26;9.40;99.90
44223;DHT22;29895;48.804;9.386;2024-02-23T15:36:52;9.40;99.90
44223;DHT22;29895;48.804;9.386;2024-02-23T15:39:18;9.40;99.90
44223;DHT22;29895;48.804;9.386;2024-02-23T15:41:43;9.50;99.90